Time;durP1;ratioP1;P1;durP2;ratioP2;P2;SDS_P1;SDS_P2;PMS_P1;PMS_P2;Temp;Humidity;BMP_temperature;BMP_pressure;BME280_temperature;BME280_humidity;BME280_pressure;Samples;Min_cycle;Max_cycle;Signal;HPM_P1;HPM_P2
2022/02/23 00:00:19;;;;;;;18.02;2.08;;;;;;;;;;5088408;28;20607;-62
2022/02/23 00:02:46;;;;;;;12.52;1.50;;;;;;;;;;5084406;28;20052;-60
2022/02/23 00:05:13;;;;;;;7.82;1.20;;;;;;;;;;5089543;28;20484;-59
2022/02/23 00:07:41;;;;;;;11.75;1.40;;;;;;;;;;5084265;28;20128;-64
2022/02/23 00:10:07;;;;;;;7.90;1.35;;;;;;;;;;5106827;27;20063;-64
2022/02/23 00:12:34;;;;;;;10.43;0.95;;;;;;;;;;5088740;28;20111;-60
2022/02/23 00:15:01;;;;;;;13.75;1.48;;;;;;;;;;5084029;28;20079;-63
2022/02/23 00:17:28;;;;;;;12.60;1.33;;;;;;;;;;5090017;28;20168;-63
2022/02/23 00:19:55;;;;;;;16.70;1.60;;;;;;;;;;5083976;28;20047;-62
2022/02/23 00:22:22;;;;;;;11.23;1.50;;;;;;;;;;5084450;28;20051;-62
2022/02/23 00:24:49;;;;;;;9.40;1.02;;;;;;;;;;5097619;28;20052;-63
2022/02/23 00:27:15;;;;;;;14.98;1.50;;;;;;;;;;5091099;28;20138;-61
2022/02/23 00:29:42;;;;;;;11.70;1.60;;;;;;;;;;5082838;28;20058;-62
2022/02/23 00:32:08;;;;;;;12.63;1.23;;;;;;;;;;5091048;28;20054;-61
2022/02/23 00:34:36;;;;;;;12.68;1.55;;;;;;;;;;5082903;28;20112;-62
2022/02/23 00:37:03;;;;;;;14.23;1.43;;;;;;;;;;5089464;28;20117;-61
2022/02/23 00:39:29;;;;;;;11.00;1.33;;;;;;;;;;5097865;28;20117;-58
2022/02/23 00:41:56;;;;;;;11.93;1.75;;;;;;;;;;5090564;28;20351;-59
2022/02/23 00:44:22;;;;;;;14.23;2.22;;;;;;;;;;5083572;28;20135;-57
2022/02/23 00:46:49;;;;;;;15.05;2.30;;;;;;;;;;5089102;28;20177;-63
2022/02/23 00:49:16;;;;;;;10.63;1.55;;;;;;;;;;5084101;28;20390;-57
2022/02/23 00:51:44;;;;;;;10.63;1.45;;;;;;;;;;5087762;28;20048;-63
2022/02/23 00:54:10;;;;;;;13.30;1.80;;;;;;;;;;5088944;28;20056;-57
2022/02/23 00:56:39;;;;;;;13.88;1.80;;;;;;;;;;5083569;28;20109;-60
2022/02/23 00:59:05;;;;;;;;;;;;;;;;;;5088071;28;20056;-61
2022/02/23 01:01:31;;;;;;;10.50;1.52;;;;;;;;;;5082695;28;19920;-59
2022/02/23 01:04:00;;;;;;;17.77;2.85;;;;;;;;;;5093035;28;20121;-58
2022/02/23 01:06:28;;;;;;;15.90;2.30;;;;;;;;;;5078273;27;20235;-61
2022/02/23 01:08:58;;;;;;;12.18;1.52;;;;;;;;;;5092179;27;20040;-60
2022/02/23 01:11:25;;;;;;;6.95;1.00;;;;;;;;;;5086832;28;20044;-62
2022/02/23 01:13:51;;;;;;;13.18;1.55;;;;;;;;;;5091654;27;20048;-58
2022/02/23 01:16:18;;;;;;;14.30;1.35;;;;;;;;;;5088196;27;20052;-61
2022/02/23 01:18:45;;;;;;;15.20;1.35;;;;;;;;;;5093272;27;20063;-59
2022/02/23 01:21:11;;;;;;;12.50;1.55;;;;;;;;;;5085714;27;20135;-58
2022/02/23 01:23:38;;;;;;;9.30;1.30;;;;;;;;;;5093330;28;20070;-60
2022/02/23 01:26:06;;;;;;;15.75;1.90;;;;;;;;;;5087985;28;20048;-63
2022/02/23 01:28:36;;;;;;;7.63;1.08;;;;;;;;;;5089241;28;20504;-61
2022/02/23 01:31:03;;;;;;;9.45;1.63;;;;;;;;;;5087405;28;20124;-62
2022/02/23 01:33:29;;;;;;;11.40;1.65;;;;;;;;;;5092622;28;20060;-62
2022/02/23 01:35:56;;;;;;;8.70;1.30;;;;;;;;;;5092704;28;20155;-63
2022/02/23 01:38:22;;;;;;;15.40;1.42;;;;;;;;;;5086635;28;20565;-63
2022/02/23 01:40:49;;;;;;;11.82;1.30;;;;;;;;;;5092973;28;20052;-59
2022/02/23 01:43:17;;;;;;;13.68;1.55;;;;;;;;;;5087069;28;20084;-62
2022/02/23 01:45:43;;;;;;;8.73;1.07;;;;;;;;;;5091816;28;20063;-62
2022/02/23 01:48:11;;;;;;;8.25;1.50;;;;;;;;;;5085937;28;20134;-62
2022/02/23 01:50:38;;;;;;;7.60;1.23;;;;;;;;;;5093180;28;20135;-63
2022/02/23 01:53:06;;;;;;;3.47;1.20;;;;;;;;;;5087048;28;20052;-61
2022/02/23 01:55:33;;;;;;;17.60;1.88;;;;;;;;;;5094820;28;20063;-61
2022/02/23 01:58:00;;;;;;;11.20;1.50;;;;;;;;;;5086057;28;20076;-61
2022/02/23 02:00:28;;;;;;;7.68;1.38;;;;;;;;;;5091906;28;20048;-63
2022/02/23 02:02:54;;;;;;;5.90;1.23;;;;;;;;;;5085684;28;20093;-60
2022/02/23 02:05:21;;;;;;;9.80;1.20;;;;;;;;;;5092316;28;20380;-62
2022/02/23 02:07:47;;;;;;;9.40;1.13;;;;;;;;;;5085241;28;20043;-61
2022/02/23 02:10:14;;;;;;;7.03;1.20;;;;;;;;;;5091827;28;20130;-63
2022/02/23 02:12:41;;;;;;;17.20;2.25;;;;;;;;;;5085140;28;20056;-62
2022/02/23 02:15:08;;;;;;;17.63;2.83;;;;;;;;;;5090500;28;20060;-62
2022/02/23 02:17:37;;;;;;;15.88;2.90;;;;;;;;;;5091485;28;20060;-61
2022/02/23 02:20:03;;;;;;;;;;;;;;;;;;5089784;28;20128;-59
2022/02/23 02:22:31;;;;;;;9.65;1.88;;;;;;;;;;5091059;28;19924;-62
2022/02/23 02:24:59;;;;;;;11.93;1.33;;;;;;;;;;5085703;28;20052;-57
2022/02/23 02:27:27;;;;;;;8.48;1.25;;;;;;;;;;5090716;28;20450;-57
2022/02/23 02:29:53;;;;;;;17.08;0.85;;;;;;;;;;5083951;28;20040;-62
2022/02/23 02:32:21;;;;;;;10.88;1.80;;;;;;;;;;5090145;28;20063;-55
2022/02/23 02:34:48;;;;;;;9.85;1.70;;;;;;;;;;5084977;28;20054;-58
2022/02/23 02:37:15;;;;;;;3.65;0.90;;;;;;;;;;5090614;28;20098;-57
2022/02/23 02:39:43;;;;;;;9.23;1.20;;;;;;;;;;5084216;28;20323;-61
2022/02/23 02:42:10;;;;;;;14.30;2.47;;;;;;;;;;5089840;28;20162;-62
2022/02/23 02:44:36;;;;;;;11.90;1.98;;;;;;;;;;5097415;27;20322;-57
2022/02/23 02:47:03;;;;;;;10.30;2.47;;;;;;;;;;5090952;28;20115;-55
2022/02/23 02:49:29;;;;;;;6.70;1.77;;;;;;;;;;5084939;28;20104;-60
2022/02/23 02:51:56;;;;;;;10.02;1.60;;;;;;;;;;5092690;28;20055;-58
2022/02/23 02:54:22;;;;;;;12.80;1.30;;;;;;;;;;5084564;28;20075;-60
2022/02/23 02:56:51;;;;;;;11.15;1.45;;;;;;;;;;5090879;28;20141;-56
2022/02/23 02:59:18;;;;;;;8.07;1.17;;;;;;;;;;5086761;28;20052;-57
2022/02/23 03:01:44;;;;;;;8.43;1.30;;;;;;;;;;5088351;28;20063;-58
2022/02/23 03:04:10;;;;;;;10.95;1.65;;;;;;;;;;5087109;28;20075;-60
2022/02/23 03:06:38;;;;;;;9.13;1.08;;;;;;;;;;5081569;28;20052;-55
2022/02/23 03:09:06;;;;;;;10.23;1.33;;;;;;;;;;5087124;28;20109;-61
2022/02/23 03:11:32;;;;;;;9.27;1.25;;;;;;;;;;5081663;28;20180;-57
2022/02/23 03:14:00;;;;;;;7.63;1.10;;;;;;;;;;5087545;28;20105;-62
2022/02/23 03:16:26;;;;;;;11.35;1.55;;;;;;;;;;5081348;28;20051;-62
2022/02/23 03:18:53;;;;;;;11.07;1.67;;;;;;;;;;5087104;28;20048;-63
2022/02/23 03:21:19;;;;;;;8.98;1.13;;;;;;;;;;5081527;28;20063;-62
2022/02/23 03:23:46;;;;;;;7.63;0.95;;;;;;;;;;5089186;28;20052;-62
2022/02/23 03:26:13;;;;;;;14.88;1.30;;;;;;;;;;5081617;28;20059;-62
2022/02/23 03:28:41;;;;;;;12.00;0.93;;;;;;;;;;5086802;28;20128;-60
2022/02/23 03:31:09;;;;;;;8.20;1.27;;;;;;;;;;5080701;28;20492;-58
2022/02/23 03:33:42;;;;;;;13.57;1.25;;;;;;;;;;5086753;28;20047;-62
2022/02/23 03:36:09;;;;;;;9.70;1.00;;;;;;;;;;5080699;28;20071;-61
2022/02/23 03:38:36;;;;;;;12.73;1.30;;;;;;;;;;5085797;28;20097;-57
2022/02/23 03:41:02;;;;;;;9.40;1.10;;;;;;;;;;5081094;28;20048;-61
2022/02/23 03:43:29;;;;;;;7.38;0.95;;;;;;;;;;5086540;28;20044;-61
2022/02/23 03:45:55;;;;;;;10.70;1.30;;;;;;;;;;5086639;28;20135;-62
2022/02/23 03:48:25;;;;;;;5.65;0.85;;;;;;;;;;5079357;28;20191;-63
2022/02/23 03:50:52;;;;;;;11.30;1.02;;;;;;;;;;5086490;28;20075;-60
2022/02/23 03:53:18;;;;;;;6.93;1.10;;;;;;;;;;5080510;28;20050;-61
2022/02/23 03:55:45;;;;;;;3.97;1.00;;;;;;;;;;5085565;28;20043;-62
2022/02/23 03:58:11;;;;;;;7.88;1.20;;;;;;;;;;5097149;28;20048;-62
2022/02/23 04:00:38;;;;;;;5.93;0.98;;;;;;;;;;5086343;28;20070;-61
2022/02/23 04:03:05;;;;;;;8.00;1.10;;;;;;;;;;5080827;28;20116;-57
2022/02/23 04:05:33;;;;;;;7.25;0.93;;;;;;;;;;5086521;28;20484;-58
2022/02/23 04:08:00;;;;;;;8.70;1.40;;;;;;;;;;5079565;28;20051;-59
2022/02/23 04:10:26;;;;;;;10.48;1.10;;;;;;;;;;5085925;28;20055;-62
2022/02/23 04:12:53;;;;;;;9.68;1.20;;;;;;;;;;5080749;28;20080;-59
2022/02/23 04:15:19;;;;;;;9.43;1.25;;;;;;;;;;5086354;28;20117;-61
2022/02/23 04:17:46;;;;;;;6.57;1.00;;;;;;;;;;5079611;28;20051;-61
2022/02/23 04:20:13;;;;;;;7.95;1.33;;;;;;;;;;5086969;28;20058;-63
2022/02/23 04:22:43;;;;;;;4.03;1.10;;;;;;;;;;5081138;28;20113;-57
2022/02/23 04:25:10;;;;;;;13.45;1.42;;;;;;;;;;5086621;28;20058;-59
2022/02/23 04:27:37;;;;;;;12.75;1.10;;;;;;;;;;5086574;28;20127;-62
2022/02/23 04:30:04;;;;;;;6.13;1.50;;;;;;;;;;5080952;28;20067;-63
2022/02/23 04:32:31;;;;;;;5.90;0.98;;;;;;;;;;5086496;28;20059;-56
2022/02/23 04:34:58;;;;;;;6.35;1.48;;;;;;;;;;5079671;28;20055;-61
2022/02/23 04:37:29;;;;;;;7.20;1.00;;;;;;;;;;5088647;28;20133;-57
2022/02/23 04:39:58;;;;;;;10.43;1.10;;;;;;;;;;5084952;28;20511;-58
2022/02/23 04:42:24;;;;;;;9.93;1.15;;;;;;;;;;5090504;28;20055;-62
2022/02/23 04:44:51;;;;;;;7.50;0.82;;;;;;;;;;5083900;28;20052;-62
2022/02/23 04:47:17;;;;;;;14.52;1.42;;;;;;;;;;5090388;28;20194;-60
2022/02/23 04:49:44;;;;;;;6.65;0.85;;;;;;;;;;5084190;28;20592;-60
2022/02/23 04:52:10;;;;;;;5.53;1.00;;;;;;;;;;5092148;28;20067;-57
2022/02/23 04:54:38;;;;;;;6.68;0.90;;;;;;;;;;5086535;28;20080;-61
2022/02/23 04:57:07;;;;;;;17.60;1.67;;;;;;;;;;5090579;28;20072;-60
2022/02/23 04:59:34;;;;;;;4.85;0.90;;;;;;;;;;5083578;28;20058;-61
2022/02/23 05:02:00;;;;;;;5.18;0.82;;;;;;;;;;5090061;28;20056;-55
2022/02/23 05:04:27;;;;;;;13.35;1.70;;;;;;;;;;5084957;28;20188;-62
2022/02/23 05:06:53;;;;;;;7.85;1.02;;;;;;;;;;5089032;28;20056;-57
2022/02/23 05:09:20;;;;;;;7.30;1.15;;;;;;;;;;5085158;28;20056;-59
2022/02/23 05:11:47;;;;;;;8.35;1.13;;;;;;;;;;5087647;28;20052;-56
2022/02/23 05:14:15;;;;;;;10.88;1.63;;;;;;;;;;5089368;28;20055;-57
2022/02/23 05:16:41;;;;;;;4.40;0.80;;;;;;;;;;5083116;28;20076;-58
2022/02/23 05:19:08;;;;;;;8.75;1.08;;;;;;;;;;5089559;28;20056;-55
2022/02/23 05:21:34;;;;;;;12.02;1.30;;;;;;;;;;5082804;28;20076;-62
2022/02/23 05:24:01;;;;;;;8.82;1.10;;;;;;;;;;5089056;28;20056;-58
2022/02/23 05:26:27;;;;;;;8.45;1.40;;;;;;;;;;5082901;28;20060;-62
2022/02/23 05:28:54;;;;;;;8.27;1.60;;;;;;;;;;5088577;28;20048;-60
2022/02/23 05:31:23;;;;;;;8.40;1.58;;;;;;;;;;5082932;28;20056;-56
2022/02/23 05:33:50;;;;;;;2.85;1.10;;;;;;;;;;5089098;28;20055;-59
2022/02/23 05:36:16;;;;;;;7.10;1.27;;;;;;;;;;5083549;28;20059;-62
2022/02/23 05:38:43;;;;;;;6.30;1.30;;;;;;;;;;5088616;28;20056;-60
2022/02/23 05:41:09;;;;;;;11.40;1.40;;;;;;;;;;5082901;28;20075;-62
2022/02/23 05:43:36;;;;;;;10.00;2.33;;;;;;;;;;5088499;28;20048;-62
2022/02/23 05:46:02;;;;;;;24.52;3.75;;;;;;;;;;5083823;28;20580;-58
2022/02/23 05:48:31;;;;;;;16.08;3.42;;;;;;;;;;5087769;28;20136;-56
2022/02/23 05:50:57;;;;;;;9.70;3.33;;;;;;;;;;5084641;28;20052;-57
2022/02/23 05:53:24;;;;;;;13.98;2.60;;;;;;;;;;5087431;28;20055;-60
2022/02/23 05:55:50;;;;;;;16.73;5.05;;;;;;;;;;5088536;28;20052;-55
2022/02/23 05:58:18;;;;;;;20.50;5.75;;;;;;;;;;5081666;28;20052;-55
2022/02/23 06:00:44;;;;;;;12.32;2.92;;;;;;;;;;5089449;28;20039;-56
2022/02/23 06:03:11;;;;;;;13.27;2.20;;;;;;;;;;5086657;28;20094;-58
2022/02/23 06:05:39;;;;;;;13.05;1.70;;;;;;;;;;5092459;28;20092;-58
2022/02/23 06:08:06;;;;;;;14.13;1.93;;;;;;;;;;5086858;28;20106;-55
2022/02/23 06:10:32;;;;;;;12.45;2.08;;;;;;;;;;5092280;28;20059;-57
2022/02/23 06:12:59;;;;;;;14.40;2.25;;;;;;;;;;5085921;28;20046;-55
2022/02/23 06:15:26;;;;;;;11.40;1.70;;;;;;;;;;5092139;28;20059;-61
2022/02/23 06:17:53;;;;;;;12.98;1.88;;;;;;;;;;5084215;28;20052;-58
2022/02/23 06:20:20;;;;;;;18.38;4.97;;;;;;;;;;5105308;27;20043;-60
2022/02/23 06:22:48;;;;;;;19.63;5.10;;;;;;;;;;5087354;28;20044;-60
2022/02/23 06:25:15;;;;;;;14.60;3.23;;;;;;;;;;5092779;28;20044;-52
2022/02/23 06:27:43;;;;;;;11.23;2.17;;;;;;;;;;5086099;28;20309;-59
2022/02/23 06:30:09;;;;;;;6.63;1.60;;;;;;;;;;5090235;28;20048;-56
2022/02/23 06:32:36;;;;;;;10.43;2.75;;;;;;;;;;5064465;28;20381;-57
2022/02/23 06:35:03;;;;;;;9.35;1.83;;;;;;;;;;5070692;28;20083;-57
2022/02/23 06:37:29;;;;;;;7.85;1.90;;;;;;;;;;5069498;28;20051;-58
2022/02/23 06:39:57;;;;;;;14.10;2.22;;;;;;;;;;5063701;28;20078;-55
2022/02/23 06:42:24;;;;;;;10.02;2.78;;;;;;;;;;5069210;28;20052;-57
2022/02/23 06:44:51;;;;;;;18.58;4.50;;;;;;;;;;5063600;28;20041;-58
2022/02/23 06:47:19;;;;;;;16.05;3.13;;;;;;;;;;5066869;28;20059;-58
2022/02/23 06:49:46;;;;;;;7.70;1.88;;;;;;;;;;5077954;28;20159;-58
2022/02/23 06:52:14;;;;;;;13.63;2.03;;;;;;;;;;5067464;28;20517;-55
2022/02/23 06:54:40;;;;;;;8.88;1.85;;;;;;;;;;5053873;28;20069;-58
2022/02/23 06:57:08;;;;;;;3.47;1.10;;;;;;;;;;5049589;28;20126;-55
2022/02/23 06:59:35;;;;;;;8.85;2.10;;;;;;;;;;5061220;28;20060;-57
2022/02/23 07:02:02;;;;;;;7.75;1.58;;;;;;;;;;5067091;28;20060;-58
2022/02/23 07:04:28;;;;;;;10.65;1.88;;;;;;;;;;5061321;28;20063;-57
2022/02/23 07:06:55;;;;;;;7.63;1.65;;;;;;;;;;5067107;28;20130;-57
2022/02/23 07:09:21;;;;;;;5.88;1.95;;;;;;;;;;5061689;28;20080;-58
2022/02/23 07:11:48;;;;;;;12.15;2.42;;;;;;;;;;5066894;28;20079;-57
2022/02/23 07:14:16;;;;;;;11.88;2.33;;;;;;;;;;5061675;28;20101;-60
2022/02/23 07:16:43;;;;;;;10.70;1.80;;;;;;;;;;5067077;28;20076;-56
2022/02/23 07:19:09;;;;;;;14.93;2.03;;;;;;;;;;5067495;28;20298;-55
2022/02/23 07:21:38;;;;;;;5.63;1.52;;;;;;;;;;5060636;28;20076;-58
2022/02/23 07:24:05;;;;;;;4.25;1.52;;;;;;;;;;5071255;28;20080;-58
2022/02/23 07:26:33;;;;;;;7.85;1.98;;;;;;;;;;5080379;28;20049;-60
2022/02/23 07:28:59;;;;;;;8.63;1.60;;;;;;;;;;5086775;28;20040;-55
2022/02/23 07:31:27;;;;;;;10.10;1.70;;;;;;;;;;5080543;28;20071;-57
2022/02/23 07:33:54;;;;;;;10.98;1.63;;;;;;;;;;5086905;28;20139;-57
2022/02/23 07:36:21;;;;;;;6.60;1.60;;;;;;;;;;5080615;28;20071;-53
2022/02/23 07:38:49;;;;;;;9.18;1.70;;;;;;;;;;5086528;28;20155;-58
2022/02/23 07:41:22;;;;;;;9.85;2.13;;;;;;;;;;5080792;28;20052;-51
2022/02/23 07:43:49;;;;;;;10.40;2.50;;;;;;;;;;5086406;28;20058;-55
2022/02/23 07:46:15;;;;;;;9.07;2.20;;;;;;;;;;5080291;28;20052;-54
2022/02/23 07:48:45;;;;;;;8.23;1.77;;;;;;;;;;5087073;28;20064;-55
2022/02/23 07:51:11;;;;;;;10.80;2.17;;;;;;;;;;5083100;28;20139;-61
2022/02/23 07:53:37;;;;;;;8.85;1.65;;;;;;;;;;5088931;28;20124;-56
2022/02/23 07:56:04;;;;;;;8.65;2.05;;;;;;;;;;5080932;28;20435;-58
2022/02/23 07:58:31;;;;;;;6.97;1.65;;;;;;;;;;5086355;28;20075;-57
2022/02/23 08:00:57;;;;;;;7.63;1.45;;;;;;;;;;5083581;28;20058;-53
2022/02/23 08:03:26;;;;;;;11.35;1.92;;;;;;;;;;5083497;28;20048;-57
2022/02/23 08:05:53;;;;;;;;;;;;;;;;;;5084756;28;20044;-55
2022/02/23 08:08:22;;;;;;;10.95;1.48;;;;;;;;;;5079014;28;19924;-55
2022/02/23 08:10:49;;;;;;;11.25;2.25;;;;;;;;;;5065755;28;20059;-61
2022/02/23 08:13:15;;;;;;;8.20;1.63;;;;;;;;;;5075549;28;20074;-57
2022/02/23 08:21:11;;;;;;;5.68;1.20;;;;;;;;;;5077410;28;20136;-54
2022/02/23 08:23:43;;;;;;;8.50;1.35;;;;;;;;;;5079280;28;20121;-61
2022/02/23 08:26:10;;;;;;;7.68;1.65;;;;;;;;;;5064468;28;20076;-54
2022/02/23 08:28:37;;;;;;;7.82;1.45;;;;;;;;;;5059468;28;20044;-59
2022/02/23 08:31:05;;;;;;;13.23;1.90;;;;;;;;;;5065724;28;20094;-58
2022/02/23 08:33:31;;;;;;;13.55;1.50;;;;;;;;;;5061433;28;20057;-62
2022/02/23 08:35:58;;;;;;;10.25;1.55;;;;;;;;;;5085242;28;20044;-60
2022/02/23 08:38:25;;;;;;;10.43;1.58;;;;;;;;;;5079094;28;20142;-60
2022/02/23 08:40:53;;;;;;;13.05;1.80;;;;;;;;;;5085596;28;20042;-61
2022/02/23 08:43:19;;;;;;;8.95;1.65;;;;;;;;;;5080794;28;20047;-59
2022/02/23 08:45:47;;;;;;;8.77;1.45;;;;;;;;;;5086531;28;20111;-62
2022/02/23 08:48:14;;;;;;;11.77;1.65;;;;;;;;;;5080286;28;20134;-63
2022/02/23 08:50:40;;;;;;;6.93;1.42;;;;;;;;;;5086077;28;20139;-60
2022/02/23 08:53:07;;;;;;;13.48;1.75;;;;;;;;;;5079821;28;20135;-59
2022/02/23 08:55:34;;;;;;;8.63;1.55;;;;;;;;;;5085409;28;20059;-63
2022/02/23 08:58:02;;;;;;;12.38;2.28;;;;;;;;;;5085305;28;20125;-61
2022/02/23 09:00:29;;;;;;;15.45;2.83;;;;;;;;;;5079603;28;20051;-62
2022/02/23 09:02:55;;;;;;;7.85;1.90;;;;;;;;;;5085612;28;20109;-60
2022/02/23 09:05:22;;;;;;;10.35;1.52;;;;;;;;;;5080204;28;20145;-58
2022/02/23 09:07:48;;;;;;;5.40;1.30;;;;;;;;;;5085149;28;20258;-59
2022/02/23 09:10:15;;;;;;;10.27;1.70;;;;;;;;;;5080301;28;20138;-59
2022/02/23 09:12:43;;;;;;;7.78;1.48;;;;;;;;;;5085720;28;20097;-58
2022/02/23 09:15:12;;;;;;;4.65;1.60;;;;;;;;;;5080561;28;20060;-58
2022/02/23 09:17:39;;;;;;;13.10;2.35;;;;;;;;;;5086239;28;20058;-63
2022/02/23 09:20:06;;;;;;;6.28;1.33;;;;;;;;;;5081390;28;20489;-62
2022/02/23 09:22:33;;;;;;;16.08;2.95;;;;;;;;;;5087710;28;20060;-57
2022/02/23 09:24:59;;;;;;;6.97;1.95;;;;;;;;;;5081041;28;20040;-59
2022/02/23 09:27:26;;;;;;;10.55;2.05;;;;;;;;;;5088564;28;20134;-55
2022/02/23 09:29:52;;;;;;;10.50;2.15;;;;;;;;;;5083378;28;20078;-57
2022/02/23 09:32:21;;;;;;;8.40;2.35;;;;;;;;;;5088651;28;20051;-60
2022/02/23 09:34:48;;;;;;;;;;;;;;;;;;5083909;28;20059;-55
2022/02/23 09:37:16;;;;;;;10.98;2.55;;;;;;;;;;5088769;28;19927;-60
2022/02/23 09:39:43;;;;;;;11.85;3.17;;;;;;;;;;5088756;28;20109;-59
2022/02/23 09:42:11;;;;;;;11.98;2.70;;;;;;;;;;5083347;28;20041;-64
2022/02/23 09:44:39;;;;;;;9.30;2.42;;;;;;;;;;5088491;28;20056;-60
2022/02/23 09:47:06;;;;;;;8.07;2.28;;;;;;;;;;5082920;28;20079;-57
2022/02/23 09:49:35;;;;;;;12.43;2.60;;;;;;;;;;5088429;28;20052;-60
2022/02/23 09:52:02;;;;;;;12.15;2.20;;;;;;;;;;5083169;28;20139;-53
2022/02/23 09:54:29;;;;;;;18.30;2.90;;;;;;;;;;5087048;28;20067;-62
2022/02/23 09:56:55;;;;;;;13.50;2.28;;;;;;;;;;5082486;28;20143;-62
2022/02/23 09:59:22;;;;;;;10.43;3.10;;;;;;;;;;5088145;28;20101;-61
2022/02/23 10:01:49;;;;;;;15.15;2.72;;;;;;;;;;5082419;28;20040;-60
2022/02/23 10:04:19;;;;;;;11.30;2.85;;;;;;;;;;5087818;28;20047;-63
2022/02/23 10:06:47;;;;;;;10.70;2.63;;;;;;;;;;5081767;28;20048;-61
2022/02/23 10:09:14;;;;;;;7.95;2.25;;;;;;;;;;5088005;28;20300;-64
2022/02/23 10:11:42;;;;;;;11.57;2.78;;;;;;;;;;5082380;28;20043;-60
2022/02/23 10:14:08;;;;;;;21.20;3.63;;;;;;;;;;5089072;28;20072;-61
2022/02/23 10:16:36;;;;;;;14.85;3.67;;;;;;;;;;5082676;28;20359;-59
2022/02/23 10:19:07;;;;;;;8.20;2.67;;;;;;;;;;5088689;28;20081;-60
2022/02/23 10:21:43;;;;;;;17.08;3.60;;;;;;;;;;5082674;28;20128;-60
2022/02/23 10:24:22;;;;;;;10.18;3.20;;;;;;;;;;5086731;28;20121;-55
2022/02/23 10:26:58;;;;;;;11.50;3.88;;;;;;;;;;5081520;28;20410;-60
2022/02/23 10:29:28;;;;;;;9.50;2.65;;;;;;;;;;5087965;28;20113;-61
2022/02/23 10:31:55;;;;;;;10.38;3.17;;;;;;;;;;5061881;28;20387;-61
2022/02/23 10:34:22;;;;;;;11.63;3.47;;;;;;;;;;5067298;28;20044;-57
2022/02/23 10:37:00;;;;;;;11.07;3.78;;;;;;;;;;5067694;28;20052;-61
2022/02/23 10:39:37;;;;;;;11.85;3.58;;;;;;;;;;5065267;28;20124;-63
2022/02/23 10:42:05;;;;;;;12.75;3.35;;;;;;;;;;5068051;28;20185;-56
2022/02/23 10:44:32;;;;;;;11.50;3.80;;;;;;;;;;5061537;28;20055;-64
2022/02/23 10:46:59;;;;;;;11.60;3.63;;;;;;;;;;5068276;28;20053;-60
2022/02/23 10:49:26;;;;;;;13.43;3.25;;;;;;;;;;5063005;28;20481;-65
2022/02/23 10:51:55;;;;;;;22.58;3.78;;;;;;;;;;5069521;28;20060;-60
2022/02/23 10:54:23;;;;;;;14.05;3.10;;;;;;;;;;5062326;28;20490;-62
2022/02/23 10:56:51;;;;;;;9.70;3.78;;;;;;;;;;5067266;28;20106;-63
2022/02/23 10:59:19;;;;;;;15.63;3.28;;;;;;;;;;5060673;28;20060;-59
2022/02/23 11:01:46;;;;;;;11.15;2.80;;;;;;;;;;5067212;28;20082;-64
2022/02/23 11:04:13;;;;;;;11.63;3.83;;;;;;;;;;5061417;28;20096;-58
2022/02/23 11:06:41;;;;;;;10.52;2.78;;;;;;;;;;5067192;28;20482;-63
2022/02/23 11:09:08;;;;;;;11.75;2.85;;;;;;;;;;5060940;28;20052;-60
2022/02/23 11:11:36;;;;;;;16.92;3.53;;;;;;;;;;5066274;28;20068;-56
2022/02/23 11:14:04;;;;;;;11.90;3.00;;;;;;;;;;5060605;28;20051;-60
2022/02/23 11:16:31;;;;;;;16.02;3.45;;;;;;;;;;5066346;28;20052;-60
2022/02/23 11:18:59;;;;;;;15.77;3.30;;;;;;;;;;5060247;28;20064;-57
2022/02/23 11:21:26;;;;;;;13.32;3.08;;;;;;;;;;5066672;28;20053;-60
2022/02/23 11:23:56;;;;;;;11.40;2.92;;;;;;;;;;5063105;28;20137;-59
2022/02/23 11:26:24;;;;;;;12.90;3.33;;;;;;;;;;5062723;28;20095;-59
2022/02/23 11:28:54;;;;;;;10.48;2.47;;;;;;;;;;5046358;28;20158;-60
2022/02/23 11:31:22;;;;;;;9.57;2.58;;;;;;;;;;5059549;28;20072;-62
2022/02/23 11:33:57;;;;;;;18.57;2.57;;;;;;;;;;5066822;28;20064;-61
2022/02/23 11:36:25;;;;;;;10.43;2.50;;;;;;;;;;5060835;28;20415;-60
2022/02/23 11:38:52;;;;;;;17.75;2.75;;;;;;;;;;5065891;28;20048;-60
2022/02/23 11:41:22;;;;;;;11.80;2.08;;;;;;;;;;5060706;28;20059;-61
2022/02/23 11:43:48;;;;;;;13.45;2.22;;;;;;;;;;5066382;28;20104;-62
2022/02/23 11:46:15;;;;;;;13.27;2.25;;;;;;;;;;5060109;28;20075;-61
2022/02/23 11:48:53;;;;;;;13.35;3.08;;;;;;;;;;5066886;28;20533;-58
2022/02/23 11:51:23;;;;;;;13.38;2.40;;;;;;;;;;5061023;28;20094;-65
2022/02/23 11:53:50;;;;;;;7.63;2.08;;;;;;;;;;5066700;28;20126;-62
2022/02/23 11:56:20;;;;;;;9.25;2.10;;;;;;;;;;5059412;28;20053;-61
2022/02/23 11:58:47;;;;;;;11.60;2.25;;;;;;;;;;5065260;28;20056;-60
2022/02/23 12:01:16;;;;;;;9.80;1.63;;;;;;;;;;5060759;28;20052;-62
2022/02/23 12:03:44;;;;;;;;;;;;;;;;;;5065051;28;20059;-60
2022/02/23 12:06:12;;;;;;;9.48;1.80;;;;;;;;;;5076996;28;19926;-65
2022/02/23 12:08:43;;;;;;;9.15;2.00;;;;;;;;;;5065984;28;20139;-61
2022/02/23 12:11:28;;;;;;;10.43;1.85;;;;;;;;;;5058864;28;20060;-63
2022/02/23 12:13:55;;;;;;;6.75;1.45;;;;;;;;;;5065969;28;20494;-60
2022/02/23 12:16:24;;;;;;;11.35;1.77;;;;;;;;;;5056990;28;20441;-65
2022/02/23 12:18:51;;;;;;;18.80;1.85;;;;;;;;;;5066018;28;20056;-66
2022/02/23 12:21:19;;;;;;;8.07;2.08;;;;;;;;;;5061244;28;20103;-58
2022/02/23 12:23:46;;;;;;;12.35;1.65;;;;;;;;;;5067749;28;20230;-65
2022/02/23 12:26:22;;;;;;;11.70;1.77;;;;;;;;;;5064363;28;20059;-57
2022/02/23 12:28:51;;;;;;;10.55;1.17;;;;;;;;;;5065229;28;20056;-58
2022/02/23 12:31:19;;;;;;;9.48;1.67;;;;;;;;;;5066059;28;20060;-57
2022/02/23 12:33:46;;;;;;;9.33;1.70;;;;;;;;;;5060289;28;20052;-59
2022/02/23 12:36:14;;;;;;;14.00;2.55;;;;;;;;;;5065864;28;20309;-60
2022/02/23 12:38:45;;;;;;;6.80;1.52;;;;;;;;;;5059484;28;20052;-58
2022/02/23 12:41:15;;;;;;;9.20;1.42;;;;;;;;;;5065753;28;20052;-60
2022/02/23 12:43:42;;;;;;;5.45;1.35;;;;;;;;;;5060132;28;20044;-63
2022/02/23 12:46:09;;;;;;;11.35;1.80;;;;;;;;;;5066106;28;20135;-61
2022/02/23 12:48:36;;;;;;;3.43;1.00;;;;;;;;;;5059383;28;20076;-61
2022/02/23 12:51:04;;;;;;;9.60;1.38;;;;;;;;;;5065372;28;20099;-60
2022/02/23 12:53:31;;;;;;;6.85;1.08;;;;;;;;;;5059111;28;20052;-61
2022/02/23 12:55:59;;;;;;;10.32;1.27;;;;;;;;;;5065162;28;20063;-59
2022/02/23 12:58:34;;;;;;;5.67;1.40;;;;;;;;;;5062336;28;20091;-57
2022/02/23 13:01:02;;;;;;;5.00;1.00;;;;;;;;;;5069565;28;20360;-59
2022/02/23 13:03:29;;;;;;;6.65;0.95;;;;;;;;;;5063506;28;20055;-61
2022/02/23 13:05:56;;;;;;;6.38;1.17;;;;;;;;;;5069243;28;20076;-67
2022/02/23 13:08:23;;;;;;;10.88;1.20;;;;;;;;;;5062889;28;20098;-65
2022/02/23 13:10:56;;;;;;;10.88;1.38;;;;;;;;;;5069273;28;20055;-67
2022/02/23 13:13:36;;;;;;;7.15;1.80;;;;;;;;;;5063389;28;20041;-60
2022/02/23 13:16:02;;;;;;;11.00;1.52;;;;;;;;;;5069150;28;20085;-63
2022/02/23 13:18:29;;;;;;;9.63;1.58;;;;;;;;;;5062624;28;20086;-58
2022/02/23 13:21:06;;;;;;;8.48;1.27;;;;;;;;;;5069317;28;20217;-60
2022/02/23 13:23:46;;;;;;;6.57;1.33;;;;;;;;;;5063906;28;20110;-63
2022/02/23 13:26:12;;;;;;;7.85;1.52;;;;;;;;;;5069315;28;20056;-58
2022/02/23 13:28:57;;;;;;;7.47;1.30;;;;;;;;;;5068019;28;20071;-61
2022/02/23 13:31:31;;;;;;;10.90;1.17;;;;;;;;;;5068045;28;20060;-62
2022/02/23 13:34:12;;;;;;;9.00;1.27;;;;;;;;;;5063882;28;20056;-63
2022/02/23 13:36:41;;;;;;;9.65;1.40;;;;;;;;;;5048691;28;20056;-61
2022/02/23 13:39:14;;;;;;;9.45;1.38;;;;;;;;;;5045143;28;20106;-58
2022/02/23 13:41:48;;;;;;;9.25;1.40;;;;;;;;;;5049308;28;20049;-62
2022/02/23 13:44:20;;;;;;;7.28;1.23;;;;;;;;;;5056004;28;20052;-61
2022/02/23 13:46:47;;;;;;;3.53;0.95;;;;;;;;;;5067585;28;20056;-65
2022/02/23 13:49:13;;;;;;;9.32;1.50;;;;;;;;;;5068156;28;20058;-66
2022/02/23 13:51:43;;;;;;;9.07;1.20;;;;;;;;;;5062745;28;20076;-67
2022/02/23 13:54:09;;;;;;;6.43;1.38;;;;;;;;;;5059415;28;20163;-67
2022/02/23 13:56:42;;;;;;;8.32;1.50;;;;;;;;;;5063969;28;20080;-66
2022/02/23 13:59:09;;;;;;;10.82;1.77;;;;;;;;;;5069998;28;20052;-66
2022/02/23 14:01:56;;;;;;;4.82;1.13;;;;;;;;;;5061425;28;20072;-64
2022/02/23 14:04:23;;;;;;;7.75;1.13;;;;;;;;;;5068544;28;20052;-67
2022/02/23 14:06:53;;;;;;;14.63;1.17;;;;;;;;;;5062523;28;20055;-61
2022/02/23 14:09:20;;;;;;;7.18;1.23;;;;;;;;;;5067571;28;20059;-64
2022/02/23 14:11:47;;;;;;;5.45;0.90;;;;;;;;;;5060746;28;20071;-58
2022/02/23 14:14:14;;;;;;;11.27;1.50;;;;;;;;;;5067482;28;20052;-65
2022/02/23 14:16:45;;;;;;;8.70;1.13;;;;;;;;;;5061191;28;20050;-61
2022/02/23 14:19:12;;;;;;;8.75;1.15;;;;;;;;;;5067401;28;20052;-59
2022/02/23 14:21:38;;;;;;;5.28;1.10;;;;;;;;;;5061624;28;20046;-65
2022/02/23 14:24:06;;;;;;;7.22;0.90;;;;;;;;;;5067426;28;20098;-59
2022/02/23 14:26:34;;;;;;;7.10;0.95;;;;;;;;;;5062639;28;20045;-64
2022/02/23 14:29:02;;;;;;;4.93;1.02;;;;;;;;;;5067564;28;20052;-66
2022/02/23 14:31:30;;;;;;;10.13;1.03;;;;;;;;;;5062155;28;20056;-62
2022/02/23 14:33:59;;;;;;;10.32;2.45;;;;;;;;;;5067566;28;20063;-63
2022/02/23 14:36:26;;;;;;;10.00;1.08;;;;;;;;;;5062264;28;20060;-61
2022/02/23 14:38:54;;;;;;;7.85;0.90;;;;;;;;;;5046736;28;20126;-62
2022/02/23 14:41:20;;;;;;;3.97;1.02;;;;;;;;;;5047535;28;20068;-61
2022/02/23 14:43:46;;;;;;;5.57;1.10;;;;;;;;;;5060304;28;20122;-63
2022/02/23 14:46:13;;;;;;;6.65;1.27;;;;;;;;;;5066993;28;20064;-63